Huvudsida
METAR-TAF:

METAR-TAF

Flygplatser :

Kosrae Airport

Kosrae, Mikronesien

latitud: 05-21N, longitud: 162-57E, höjd: 3 m

Aktuellt väderrapport

Denna rapport gjordes för 16 minuter sedan, klockan 21:50 UTC
Vind 3 kt från ost
Temperatur 29°C
Fuktighet 79%
Tryck 1011 hPa
Sikt: 16.1 km
Brutna moln på en höjd av 1500 ft
Brutna moln på en höjd av 13000 ft
Mulet på en höjd av 30000 ft

METAR: PTSA 192150Z 09003KT 10SM BKN015 BKN130 OVC300 29/25 A2985 RMK FIRST

Tid: 09:06 (22:06 UTC)

Väderprognos

Denna rapport gjordes för 22 timmar och 32 minuter sedan, klockan 23:34 UTC
Prognos gäller från 18 kl. 00 UTC till 18 kl. 24 UTC
Vind 10 kt från ost
Sikt: 10 km
Spridda moln på en höjd av 2000 ft
Spridda moln på en höjd av 6000 ft
skurar i närheten

TAF: PTSA 172334Z 1800/1824 08010KT P6SM VCSH SCT020 SCT060

Aktuella väderrapporter och prognoser från 4000 flygplatser (METAR- och TAF-rapporter).

De tillgängliga stationerna syns som gula och röda prickar på kartan.

För musen över prickarna för att se namnen på stationerna.

Klicka sedan för att få väderrapporter och prognoser.

För att ändra kartan: Klicka på de gröna knapparna med ett svart kors på för att zooma in; den gröna knappen med ett streck på för att zooma ut; eller på de gröna pilarna för angränsande kartor.


METAR-TAF: